Time;durP1;ratioP1;P1;durP2;ratioP2;P2;SDS_P1;SDS_P2;PMS_P1;PMS_P2;Temp;Humidity;BMP_temperature;BMP_pressure;BME280_temperature;BME280_humidity;BME280_pressure;Samples;Min_cycle;Max_cycle;Signal;HPM_P1;HPM_P2
2023/07/22 00:00:15;;;;;;;;;2.80;1.00;;;;;20.59;72.14;99001.94;5086747;28;8853;-76
2023/07/22 00:03:06;;;;;;;;;3.60;3.00;;;;;20.68;74.37;98993.28;5066111;28;9043;-76
2023/07/22 00:05:35;;;;;;;;;5.20;4.20;;;;;20.74;74.34;98999.16;5066387;28;8873;-75
2023/07/22 00:08:04;;;;;;;;;6.80;5.60;;;;;20.84;73.86;98985.03;5049824;28;8886;-77
2023/07/22 00:10:35;;;;;;;;;4.40;4.40;;;;;20.68;73.12;99001.28;5049237;28;8894;-77
2023/07/22 00:13:03;;;;;;;;;4.40;3.40;;;;;20.83;73.33;99003.81;5079556;28;8904;-78
2023/07/22 00:15:32;;;;;;;;;5.20;5.20;;;;;20.75;70.69;98998.19;5086137;28;8818;-78
2023/07/22 00:18:01;;;;;;;;;4.00;3.40;;;;;20.86;72.85;99016.97;5067701;28;8954;-78
2023/07/22 00:20:30;;;;;;;;;3.20;3.00;;;;;20.98;72.92;99024.13;5049567;28;8862;-77
2023/07/22 00:22:59;;;;;;;;;4.40;4.40;;;;;20.86;72.49;99035.69;5065904;28;8893;-77
2023/07/22 00:25:28;;;;;;;;;3.40;3.40;;;;;20.94;71.56;99024.47;5049478;28;9071;-77
2023/07/22 00:27:58;;;;;;;;;3.00;3.00;;;;;20.98;71.34;99042.81;5064988;28;8870;-77
2023/07/22 00:30:28;;;;;;;;;4.40;4.00;;;;;20.72;69.92;99039.31;5069104;28;8842;-77
2023/07/22 00:32:56;;;;;;;;;4.00;3.00;;;;;20.79;71.13;99050.44;5086223;28;9023;-76
2023/07/22 00:35:25;;;;;;;;;3.00;2.80;;;;;20.88;72.52;99063.97;5068686;28;8865;-80
2023/07/22 00:37:54;;;;;;;;;3.40;3.40;;;;;20.93;72.25;99073.50;5045568;28;9670;-79
2023/07/22 00:40:23;;;;;;;;;5.80;4.40;;;;;20.79;69.59;99063.78;5068470;28;8872;-78
2023/07/22 00:42:52;;;;;;;;;3.40;3.40;;;;;20.92;73.22;99069.09;5084630;28;8927;-76
2023/07/22 00:45:24;;;;;;;;;3.40;3.40;;;;;20.96;70.96;99060.78;5050841;28;8839;-77
2023/07/22 00:47:53;;;;;;;;;4.80;4.20;;;;;21.06;72.64;99044.94;5084550;28;8854;-77
2023/07/22 00:50:23;;;;;;;;;4.80;4.80;;;;;20.82;69.32;99042.19;5087333;28;8836;-77
2023/07/22 00:52:53;;;;;;;;;4.00;4.00;;;;;20.82;70.38;99048.41;5037535;28;9720;-77
2023/07/22 00:55:22;;;;;;;;;4.40;4.40;;;;;20.68;69.71;99028.00;5087307;28;8863;-76
2023/07/22 00:57:51;;;;;;;;;5.00;4.20;;;;;20.72;70.63;98995.72;5052626;28;8868;-77
2023/07/22 01:00:20;;;;;;;;;6.00;5.80;;;;;20.46;70.38;98955.72;5035099;28;8836;-77
2023/07/22 01:02:50;;;;;;;;;5.00;5.00;;;;;20.22;69.93;98936.97;5071650;28;8863;-76
2023/07/22 01:05:19;;;;;;;;;5.40;5.00;;;;;19.93;70.66;98890.97;5087341;28;9653;-78
2023/07/22 01:07:48;;;;;;;;;3.40;3.20;;;;;19.59;71.67;98880.00;5060963;28;8849;-80
2023/07/22 01:10:17;;;;;;;;;3.00;3.00;;;;;19.75;73.23;98911.81;5029491;28;8974;-78
2023/07/22 01:12:47;;;;;;;;;4.80;4.20;;;;;19.58;72.88;98969.78;5046994;28;8880;-78
2023/07/22 01:15:16;;;;;;;;;6.00;5.00;;;;;19.74;74.03;99017.59;5047069;28;9995;-77
2023/07/22 01:17:45;;;;;;;;;7.20;6.00;;;;;19.63;73.83;99100.13;5047604;28;8850;-78
2023/07/22 01:20:18;;;;;;;;;5.40;5.40;;;;;19.72;73.69;99115.50;5029643;28;8862;-78
2023/07/22 01:22:52;;;;;;;;;5.40;4.60;;;;;19.37;72.93;99112.47;5025495;28;8877;-76
2023/07/22 01:25:22;;;;;;;;;4.40;4.40;;;;;19.17;73.92;99113.72;5048633;28;8891;-77
2023/07/22 01:27:53;;;;;;;;;6.60;4.60;;;;;18.77;75.98;99102.91;5049161;28;8889;-78
2023/07/22 01:30:22;;;;;;;;;7.00;6.00;;;;;18.57;77.97;99096.97;5049925;28;8870;-77
2023/07/22 01:32:51;;;;;;;;;5.00;5.00;;;;;19.06;78.14;99075.28;5032233;28;8886;-77
2023/07/22 01:35:20;;;;;;;;;6.80;6.40;;;;;19.32;77.55;99056.78;5058928;28;8947;-76
2023/07/22 01:37:50;;;;;;;;;8.00;6.20;;;;;19.42;76.06;99060.53;5085346;28;8963;-77
2023/07/22 01:40:20;;;;;;;;;7.20;7.20;;;;;19.66;75.89;99033.25;5041621;28;8878;-76
2023/07/22 01:42:49;;;;;;;;;5.80;5.80;;;;;19.87;75.14;99005.13;5048627;28;9678;-76
2023/07/22 01:45:18;;;;;;;;;10.00;8.20;;;;;20.02;74.57;99035.25;5048350;28;8874;-78
2023/07/22 01:47:47;;;;;;;;;8.60;7.00;;;;;20.25;75.67;99038.16;5035707;28;8864;-77
2023/07/22 01:50:18;;;;;;;;;8.80;7.20;;;;;20.36;75.33;99045.44;5052567;28;8844;-78
2023/07/22 01:52:47;;;;;;;;;8.60;8.40;;;;;20.54;74.53;99040.59;5049129;28;9004;-78
2023/07/22 01:55:16;;;;;;;;;7.40;7.00;;;;;20.63;74.42;99042.63;5055925;28;8849;-77
2023/07/22 01:57:46;;;;;;;;;7.20;6.80;;;;;20.75;74.34;99041.78;5052288;28;8871;-77
2023/07/22 02:00:15;;;;;;;;;0.00;0.00;;;;;20.79;72.70;99063.78;5069217;28;9666;-77
2023/07/22 02:02:44;;;;;;;;;5.80;5.40;;;;;20.66;70.26;99082.50;5035550;28;8911;-78
2023/07/22 02:05:14;;;;;;;;;8.60;8.20;;;;;20.64;72.02;99089.75;5068737;28;8904;-77
2023/07/22 02:07:43;;;;;;;;;8.40;8.20;;;;;20.78;73.89;99091.44;5073288;28;8850;-77
2023/07/22 02:10:12;;;;;;;;;7.80;6.00;;;;;20.86;73.04;99091.78;5021710;28;8937;-76
2023/07/22 02:12:40;;;;;;;;;9.40;6.80;;;;;20.66;71.52;99094.00;5044496;28;8876;-77
2023/07/22 02:15:11;;;;;;;;;6.00;5.20;;;;;20.82;72.50;99060.88;4996047;28;8861;-78
2023/07/22 02:17:40;;;;;;;;;6.60;6.60;;;;;20.84;71.63;99065.16;4996275;28;8884;-78
2023/07/22 02:20:09;;;;;;;;;6.20;5.80;;;;;20.87;70.67;99053.41;5012264;28;8873;-77
2023/07/22 02:22:38;;;;;;;;;7.80;6.80;;;;;20.95;71.83;99042.19;5015069;28;8823;-78
2023/07/22 02:25:10;;;;;;;;;7.00;5.80;;;;;20.79;71.17;99021.88;5050758;28;8835;-77
2023/07/22 02:27:40;;;;;;;;;8.80;7.00;;;;;20.74;70.66;99031.19;5019803;28;8866;-78
2023/07/22 02:30:11;;;;;;;;;10.00;8.00;;;;;20.86;71.32;99062.38;5019039;28;8878;-79
2023/07/22 02:32:41;;;;;;;;;7.40;6.80;;;;;20.85;71.05;99090.06;5025253;28;8851;-78
2023/07/22 02:35:11;;;;;;;;;4.20;4.00;;;;;20.65;68.05;99100.34;5047647;28;9616;-79
2023/07/22 02:37:40;;;;;;;;;6.00;6.00;;;;;20.64;71.25;99105.78;5068217;28;8916;-76
2023/07/22 02:40:11;;;;;;;;;5.40;5.40;;;;;20.77;71.86;99103.97;5003588;28;8904;-78
2023/07/22 02:42:40;;;;;;;;;6.20;6.00;;;;;20.85;71.46;99114.94;5015824;28;8881;-78
2023/07/22 02:45:12;;;;;;;;;5.80;5.80;;;;;20.74;69.72;99096.16;5051782;28;8840;-77
2023/07/22 02:47:41;;;;;;;;;7.00;7.00;;;;;20.83;71.16;99124.03;5040269;28;8859;-78
2023/07/22 02:50:11;;;;;;;;;6.40;6.40;;;;;20.79;70.76;99138.56;5063874;28;9597;-80
2023/07/22 02:52:40;;;;;;;;;9.40;7.40;;;;;20.68;70.49;99145.50;5072742;28;8864;-78
2023/07/22 02:55:12;;;;;;;;;6.60;6.60;;;;;20.78;69.97;99168.91;5072845;28;8866;-78
2023/07/22 02:57:41;;;;;;;;;6.40;4.60;;;;;20.37;69.69;99183.28;5073609;28;8874;-76
2023/07/22 03:00:13;;;;;;;;;6.60;6.60;;;;;20.22;70.93;99212.69;5058602;28;8850;-78
2023/07/22 03:02:42;;;;;;;;;6.80;6.80;;;;;20.14;72.09;99241.72;5052943;28;8866;-78
2023/07/22 03:05:12;;;;;;;;;7.80;7.20;;;;;19.78;71.06;99247.59;5086191;28;8943;-79
2023/07/22 03:07:42;;;;;;;;;5.80;5.80;;;;;19.62;72.49;99251.25;5056360;28;9065;-78
2023/07/22 03:10:12;;;;;;;;;4.40;4.40;;;;;19.48;72.39;99228.09;5092005;28;8836;-80
2023/07/22 03:12:40;;;;;;;;;9.60;8.20;;;;;19.59;73.03;99232.75;5091756;28;8863;-80
2023/07/22 03:15:12;;;;;;;;;11.60;8.20;;;;;19.73;71.80;99253.25;5091533;28;9041;-78
2023/07/22 03:17:42;;;;;;;;;6.00;6.00;;;;;19.45;74.39;99236.28;5070401;28;8836;-77
2023/07/22 03:20:14;;;;;;;;;11.60;11.00;;;;;19.46;74.86;99237.13;5087895;28;8836;-78
2023/07/22 03:22:43;;;;;;;;;6.20;5.20;;;;;19.61;74.56;99214.00;5039401;28;8856;-77
2023/07/22 03:25:15;;;;;;;;;8.20;7.80;;;;;19.67;74.37;99222.50;5082570;28;8855;-77
2023/07/22 03:27:44;;;;;;;;;8.80;7.80;;;;;19.76;74.95;99225.50;5050459;28;8950;-77
2023/07/22 03:30:16;;;;;;;;;15.80;15.60;;;;;19.85;74.15;99207.09;5050480;28;8841;-79
2023/07/22 03:32:47;;;;;;;;;6.40;6.40;;;;;20.05;73.71;99196.94;5062342;28;8852;-79
2023/07/22 03:35:17;;;;;;;;;10.20;8.60;;;;;20.08;74.20;99197.59;5030828;28;8845;-80
2023/07/22 03:37:47;;;;;;;;;8.80;8.40;;;;;20.27;73.99;99186.59;5014267;28;8978;-77
2023/07/22 03:40:19;;;;;;;;;9.40;9.00;;;;;20.42;74.22;99167.81;5030606;28;8870;-77
2023/07/22 03:42:49;;;;;;;;;8.80;8.60;;;;;20.55;73.60;99158.00;5043420;28;8913;-76
2023/07/22 03:45:21;;;;;;;;;8.20;7.80;;;;;20.60;71.61;99147.88;5050809;28;8871;-80
2023/07/22 03:47:52;;;;;;;;;10.40;10.40;;;;;20.77;73.22;99130.66;5063814;28;8855;-80
2023/07/22 03:50:21;;;;;;;;;10.80;9.00;;;;;20.82;71.96;99151.69;5013841;28;8963;-78
2023/07/22 03:52:50;;;;;;;;;7.40;6.60;;;;;20.93;72.35;99125.13;5030243;28;8885;-77
2023/07/22 03:55:19;;;;;;;;;6.80;5.80;;;;;20.77;70.34;99101.28;5030512;28;8943;-78
2023/07/22 03:57:48;;;;;;;;;8.00;7.80;;;;;20.17;71.69;99104.53;5058526;28;8913;-77
2023/07/22 04:00:17;;;;;;;;;8.60;7.80;;;;;19.61;73.71;99132.22;5033460;28;8921;-79
2023/07/22 04:02:47;;;;;;;;;8.80;8.40;;;;;20.00;73.95;99124.34;5050048;28;8880;-77
2023/07/22 04:05:18;;;;;;;;;8.60;8.60;;;;;20.20;74.48;99117.66;5029449;28;9815;-78
2023/07/22 04:07:47;;;;;;;;;7.00;7.00;;;;;19.77;73.80;99084.06;5067772;28;8892;-77
2023/07/22 04:10:16;;;;;;;;;8.40;7.40;;;;;19.57;74.20;99089.84;5051098;28;8853;-79
2023/07/22 04:12:44;;;;;;;;;8.40;7.60;;;;;19.72;75.21;99075.50;5067861;28;8870;-77
2023/07/22 04:15:15;;;;;;;;;9.20;9.20;;;;;19.56;74.55;99056.19;5051455;28;8861;-79
2023/07/22 04:17:43;;;;;;;;;9.00;9.00;;;;;19.52;74.40;99044.84;4982687;28;8860;-77
2023/07/22 04:20:14;;;;;;;;;8.00;8.00;;;;;19.71;74.67;99050.66;5064848;28;9624;-77
2023/07/22 04:22:42;;;;;;;;;9.00;8.40;;;;;19.63;73.89;99037.00;5068240;28;8904;-78
2023/07/22 04:25:11;;;;;;;;;7.60;7.60;;;;;19.75;73.20;99029.97;5080469;28;8870;-77
2023/07/22 04:27:40;;;;;;;;;28.60;28.20;;;;;19.61;74.23;99038.91;5069361;28;8870;-79
2023/07/22 04:30:10;;;;;;;;;7.00;7.00;;;;;19.71;72.48;99056.00;5067907;28;8862;-78
2023/07/22 04:32:43;;;;;;;;;7.20;7.00;;;;;19.09;74.73;99090.25;5056536;28;8921;-77
2023/07/22 04:35:14;;;;;;;;;44.20;34.80;;;;;19.13;75.29;99113.06;5089546;28;8840;-77
2023/07/22 04:37:43;;;;;;;;;7.60;7.60;;;;;18.71;76.85;99160.88;5072185;28;8843;-79
2023/07/22 04:40:14;;;;;;;;;7.60;7.60;;;;;18.26;80.34;99180.47;5045610;28;8874;-78
2023/07/22 04:42:43;;;;;;;;;9.40;8.40;;;;;18.25;81.33;99170.75;4997452;28;8949;-78
2023/07/22 04:45:12;;;;;;;;;11.20;9.20;;;;;18.40;81.19;99175.16;5029301;28;8970;-78
2023/07/22 04:47:41;;;;;;;;;11.20;9.00;;;;;18.65;80.92;99179.91;5032000;28;8860;-76
2023/07/22 04:50:11;;;;;;;;;9.20;9.20;;;;;18.84;79.37;99179.66;5049051;28;8864;-78
2023/07/22 04:52:43;;;;;;;;;10.80;10.40;;;;;18.82;80.01;99188.69;5009226;28;8859;-77
2023/07/22 04:55:12;;;;;;;;;10.80;8.80;;;;;18.69;80.49;99191.22;4942804;28;8945;-78
2023/07/22 04:57:44;;;;;;;;;10.00;10.00;;;;;19.04;78.64;99193.56;4988934;28;8889;-77
2023/07/22 05:00:16;;;;;;;;;11.00;10.40;;;;;19.46;78.15;99194.47;4989133;28;8889;-80
2023/07/22 05:02:45;;;;;;;;;14.80;12.00;;;;;19.36;76.47;99199.53;4988847;28;9009;-78
2023/07/22 05:05:14;;;;;;;;;9.80;8.40;;;;;19.07;77.30;99204.88;4990837;28;8908;-79
2023/07/22 05:07:45;;;;;;;;;11.00;10.20;;;;;19.02;78.02;99198.97;4998734;28;8904;-78
2023/07/22 05:10:14;;;;;;;;;7.60;7.60;;;;;19.02;78.05;99198.13;5021991;28;10001;-77
2023/07/22 05:12:44;;;;;;;;;7.40;7.40;;;;;18.78;79.81;99217.31;5012122;28;8865;-77
2023/07/22 05:15:13;;;;;;;;;10.20;9.00;;;;;18.74;78.58;99213.97;5011884;28;9827;-75
2023/07/22 05:17:42;;;;;;;;;10.60;10.00;;;;;18.67;80.11;99212.63;5028036;28;8852;-77
2023/07/22 05:20:12;;;;;;;;;9.60;8.40;;;;;18.80;79.12;99225.22;5028083;28;8853;-75
2023/07/22 05:22:42;;;;;;;;;10.80;9.40;;;;;18.92;78.05;99225.31;5058279;28;8969;-73
2023/07/22 05:25:12;;;;;;;;;10.00;10.00;;;;;19.15;77.50;99222.22;5069608;28;8963;-79
2023/07/22 05:27:41;;;;;;;;;20.40;16.00;;;;;19.02;78.52;99214.13;5067799;28;8912;-77
2023/07/22 05:30:11;;;;;;;;;11.80;9.80;;;;;19.03;77.93;99216.69;5083200;28;8877;-77
2023/07/22 05:33:00;;;;;;;;;13.40;10.20;;;;;19.17;78.39;99231.81;5051497;28;8866;-77
2023/07/22 05:35:29;;;;;;;;;12.20;12.00;;;;;19.41;77.70;99228.59;5048785;28;8874;-76
2023/07/22 05:37:57;;;;;;;;;12.20;11.60;;;;;19.96;76.25;99232.22;5052779;28;8836;-78
2023/07/22 05:40:28;;;;;;;;;9.20;8.40;;;;;19.95;74.56;99233.19;5034626;28;8919;-77
2023/07/22 05:42:57;;;;;;;;;11.40;11.20;;;;;19.96;75.95;99245.56;5013520;28;8861;-77
2023/07/22 05:45:26;;;;;;;;;10.60;9.60;;;;;19.75;76.09;99251.31;5067771;28;9702;-77
2023/07/22 05:47:54;;;;;;;;;7.40;7.40;;;;;19.64;73.87;99254.66;5062730;28;8877;-77
2023/07/22 05:50:23;;;;;;;;;10.00;10.00;;;;;19.33;76.69;99255.72;5057439;28;8877;-78
2023/07/22 05:52:52;;;;;;;;;9.60;8.40;;;;;19.24;77.28;99249.13;5067936;28;8939;-80
2023/07/22 05:55:21;;;;;;;;;10.80;9.00;;;;;19.41;77.59;99249.91;5068738;28;8980;-81
2023/07/22 05:57:51;;;;;;;;;12.80;9.80;;;;;19.49;76.13;99264.47;5028109;28;8911;-82
2023/07/22 06:00:20;;;;;;;;;12.40;11.60;;;;;19.52;76.04;99280.31;5028058;28;8872;-78
2023/07/22 06:02:49;;;;;;;;;9.80;9.80;;;;;19.56;76.35;99272.97;5028249;28;9010;-77
2023/07/22 06:05:18;;;;;;;;;9.60;8.60;;;;;19.57;75.57;99276.50;5045282;28;8853;-77
2023/07/22 06:07:47;;;;;;;;;12.80;11.20;;;;;19.62;76.33;99271.72;5041718;28;9000;-79
2023/07/22 06:10:16;;;;;;;;;12.80;11.60;;;;;19.73;76.44;99263.91;5013938;28;8917;-77
2023/07/22 06:12:46;;;;;;;;;10.00;9.00;;;;;20.40;76.40;99255.16;5032543;28;8864;-79
2023/07/22 06:15:17;;;;;;;;;9.60;8.00;;;;;20.48;71.79;99258.16;5066654;28;8880;-77
2023/07/22 06:17:46;;;;;;;;;11.20;9.20;;;;;20.03;74.56;99257.56;5045414;28;8891;-75
2023/07/22 06:20:15;;;;;;;;;11.00;11.00;;;;;20.05;74.33;99255.66;5048132;28;9612;-80
2023/07/22 06:22:44;;;;;;;;;10.20;9.80;;;;;19.80;75.21;99259.03;5031406;28;8947;-77
2023/07/22 06:25:12;;;;;;;;;13.00;11.00;;;;;19.83;75.66;99272.16;5048109;28;8854;-77
2023/07/22 06:27:41;;;;;;;;;9.40;9.40;;;;;19.91;74.92;99267.19;5024965;28;8896;-80
2023/07/22 06:30:11;;;;;;;;;11.40;10.80;;;;;20.21;75.83;99266.16;5031556;28;8892;-78
2023/07/22 06:32:41;;;;;;;;;11.60;10.20;;;;;19.93;75.35;99283.94;5043943;28;8857;-78
2023/07/22 06:35:10;;;;;;;;;11.80;11.80;;;;;19.67;75.81;99269.63;5026195;28;8862;-79
2023/07/22 06:37:40;;;;;;;;;9.80;9.20;;;;;20.19;74.59;99266.25;5052522;28;8858;-78
2023/07/22 06:40:09;;;;;;;;;13.60;13.60;;;;;20.13;74.11;99260.47;5069201;28;8939;-81
2023/07/22 06:42:38;;;;;;;;;12.80;12.60;;;;;19.88;74.87;99268.25;5068533;28;8935;-80
2023/07/22 06:45:08;;;;;;;;;12.00;12.00;;;;;19.95;73.76;99265.19;5051319;28;8951;-79
2023/07/22 06:47:37;;;;;;;;;12.60;10.00;;;;;20.09;73.28;99259.81;5060510;28;9639;-80
2023/07/22 06:50:08;;;;;;;;;12.20;12.20;;;;;19.87;73.85;99258.53;5002954;28;8894;-80
2023/07/22 06:52:37;;;;;;;;;12.80;12.60;;;;;19.85;74.17;99267.59;5070393;28;8989;-79
2023/07/22 06:55:06;;;;;;;;;13.80;12.00;;;;;20.15;73.90;99278.09;5068231;28;8873;-79
2023/07/22 06:57:35;;;;;;;;;13.00;12.20;;;;;20.12;73.88;99264.94;5070413;28;8836;-81
2023/07/22 07:00:05;;;;;;;;;12.20;11.60;;;;;19.97;73.87;99266.81;5052322;28;8858;-79
2023/07/22 07:02:34;;;;;;;;;15.00;15.00;;;;;20.24;72.81;99266.00;5055505;28;8990;-79
2023/07/22 07:05:03;;;;;;;;;16.20;14.00;;;;;20.25;72.39;99270.38;5076343;28;8858;-76
2023/07/22 07:07:34;;;;;;;;;13.40;12.80;;;;;20.59;71.09;99277.00;5044906;28;9617;-81
2023/07/22 07:10:03;;;;;;;;;15.60;13.80;;;;;20.44;71.14;99288.69;5068602;28;8846;-80
2023/07/22 07:12:32;;;;;;;;;14.20;14.20;;;;;20.03;72.84;99295.75;5069519;28;8868;-82
2023/07/22 07:15:01;;;;;;;;;11.00;11.00;;;;;19.97;73.83;99288.16;4988889;28;8874;-79
2023/07/22 07:17:32;;;;;;;;;15.40;15.40;;;;;19.89;73.17;99283.28;5052534;28;8862;-80
2023/07/22 07:20:02;;;;;;;;;17.00;17.00;;;;;20.26;73.10;99288.97;5065935;28;8869;-83
2023/07/22 07:22:31;;;;;;;;;14.60;14.00;;;;;20.20;70.86;99296.47;5068287;28;8920;-81
2023/07/22 07:25:02;;;;;;;;;16.40;16.00;;;;;20.43;70.86;99295.88;5064061;28;8891;-75
2023/07/22 07:27:30;;;;;;;;;11.40;11.00;;;;;20.94;69.37;99287.16;5012032;28;8925;-75
2023/07/22 07:29:59;;;;;;;;;12.40;12.20;;;;;20.64;68.88;99293.56;4974973;28;8855;-74
2023/07/22 07:32:28;;;;;;;;;10.00;10.00;;;;;20.68;68.68;99307.56;4997647;28;8851;-74
2023/07/22 07:34:57;;;;;;;;;11.00;11.00;;;;;20.68;69.02;99303.09;5015292;28;9590;-74
2023/07/22 07:37:26;;;;;;;;;9.40;9.00;;;;;20.57;68.06;99289.59;5036756;28;8861;-75
2023/07/22 07:39:59;;;;;;;;;12.40;12.40;;;;;20.87;67.07;99288.50;5026479;28;8882;-77
2023/07/22 07:42:29;;;;;;;;;10.00;10.00;;;;;20.89;66.17;99299.94;5005953;28;8886;-83
2023/07/22 07:44:59;;;;;;;;;12.00;12.00;;;;;21.03;66.38;99293.66;4982729;28;8965;-81
2023/07/22 07:47:28;;;;;;;;;14.00;13.80;;;;;21.33;65.45;99284.50;5033082;28;8874;-81
2023/07/22 07:49:57;;;;;;;;;15.00;14.80;;;;;21.15;66.02;99292.00;5026681;28;8851;-76
2023/07/22 07:52:26;;;;;;;;;13.80;13.00;;;;;21.43;65.46;99291.75;5020162;28;8868;-76
2023/07/22 07:54:55;;;;;;;;;14.40;12.40;;;;;21.54;64.16;99291.00;4986306;28;9229;-74
2023/07/22 07:57:24;;;;;;;;;10.40;9.80;;;;;21.52;64.36;99294.75;5026020;28;8844;-74
2023/07/22 07:59:54;;;;;;;;;12.60;11.60;;;;;21.62;62.83;99283.31;5048168;28;9595;-75
2023/07/22 08:02:23;;;;;;;;;12.20;12.20;;;;;21.87;62.27;99294.09;5067422;28;8858;-75
2023/07/22 08:04:51;;;;;;;;;14.20;13.80;;;;;22.03;61.65;99292.00;5048876;28;8853;-75
2023/07/22 08:07:20;;;;;;;;;15.20;13.40;;;;;22.10;61.79;99281.72;5071029;28;8843;-74
2023/07/22 08:09:49;;;;;;;;;14.40;13.40;;;;;22.29;59.83;99287.44;5067869;28;8866;-76
2023/07/22 08:12:18;;;;;;;;;12.60;12.00;;;;;22.44;60.30;99293.47;5068203;28;8842;-76
2023/07/22 08:14:47;;;;;;;;;12.80;12.20;;;;;22.57;58.84;99310.34;5067712;28;8959;-80
2023/07/22 08:17:17;;;;;;;;;14.00;14.00;;;;;22.21;60.09;99308.53;5064187;28;9020;-82
2023/07/22 08:19:46;;;;;;;;;13.60;13.60;;;;;22.30;59.33;99309.72;5060590;28;8870;-81
2023/07/22 08:22:15;;;;;;;;;15.60;15.20;;;;;22.47;59.61;99306.66;5069327;28;8921;-81
2023/07/22 08:24:45;;;;;;;;;13.00;12.40;;;;;22.20;59.52;99302.34;5070791;28;8854;-81
2023/07/22 08:27:17;;;;;;;;;15.40;14.80;;;;;22.31;59.44;99303.41;5068627;28;8915;-79
2023/07/22 08:29:47;;;;;;;;;13.60;12.40;;;;;22.33;58.68;99296.94;5068076;28;8850;-74
2023/07/22 08:32:17;;;;;;;;;12.40;12.40;;;;;22.28;57.71;99306.28;5068624;28;8862;-76
2023/07/22 08:34:47;;;;;;;;;13.80;12.00;;;;;22.26;56.38;99317.13;5048513;28;8860;-73
2023/07/22 08:37:15;;;;;;;;;12.40;12.40;;;;;22.41;56.71;99307.97;5062861;28;8896;-73
2023/07/22 08:39:44;;;;;;;;;13.60;13.40;;;;;22.32;56.22;99319.34;5057958;28;9081;-74
2023/07/22 08:42:16;;;;;;;;;12.80;12.80;;;;;22.38;56.94;99318.91;5023405;28;8878;-75
2023/07/22 08:44:48;;;;;;;;;12.20;12.20;;;;;22.80;55.35;99308.59;5068264;28;8865;-73
2023/07/22 08:47:22;;;;;;;;;14.00;13.20;;;;;22.71;56.63;99309.31;5079982;28;8895;-76
2023/07/22 08:49:54;;;;;;;;;14.60;14.60;;;;;23.48;56.53;99306.09;5053233;28;8862;-78
2023/07/22 08:52:23;;;;;;;;;16.00;16.00;;;;;24.10;56.20;99306.59;5062472;28;8861;-76
2023/07/22 08:54:53;;;;;;;;;15.80;15.00;;;;;24.47;54.83;99309.81;5072074;28;8808;-80
2023/07/22 08:57:23;;;;;;;;;15.20;15.00;;;;;24.33;54.06;99305.56;5088571;28;8964;-66
2023/07/22 08:59:52;;;;;;;;;18.00;16.80;;;;;24.72;54.08;99311.31;5047732;28;8849;-69
2023/07/22 09:02:22;;;;;;;;;14.40;14.40;;;;;25.07;52.03;99304.78;5012807;28;8884;-80
2023/07/22 09:04:52;;;;;;;;;16.80;15.20;;;;;25.44;52.27;99303.50;5050594;28;8895;-82
2023/07/22 09:07:21;;;;;;;;;19.20;17.80;;;;;25.78;51.12;99309.44;5046467;28;8885;-82
2023/07/22 09:09:51;;;;;;;;;1.60;0.00;;;;;24.69;50.86;99306.16;5034440;28;8852;-81
2023/07/22 09:12:23;;;;;;;;;18.20;16.40;;;;;24.94;52.60;99306.81;5041807;28;8854;-80
2023/07/22 09:14:53;;;;;;;;;16.40;15.40;;;;;25.52;51.14;99315.28;5017148;28;8971;-79
2023/07/22 09:17:23;;;;;;;;;18.00;16.60;;;;;25.85;50.67;99317.81;5059010;28;9761;-76
2023/07/22 09:19:54;;;;;;;;;17.60;17.40;;;;;26.23;50.08;99318.94;5062381;28;8843;-79
2023/07/22 09:22:26;;;;;;;;;17.80;16.00;;;;;24.79;50.45;99321.56;5066680;28;8861;-76
2023/07/22 09:25:14;;;;;;;;;18.40;18.40;;;;;24.85;50.56;99321.91;4985020;28;8996;-76
2023/07/22 09:27:43;;;;;;;;;15.60;15.60;;;;;24.58;51.35;99318.81;5066820;28;8862;-75
2023/07/22 09:30:23;;;;;;;;;16.20;16.00;;;;;25.11;50.78;99324.19;5071750;28;8858;-75
2023/07/22 09:32:55;;;;;;;;;19.20;18.40;;;;;24.08;53.01;99322.81;5067295;28;8904;-75
2023/07/22 09:35:27;;;;;;;;;15.60;15.60;;;;;23.54;53.61;99323.56;5067262;28;9030;-77
2023/07/22 09:37:56;;;;;;;;;21.60;20.80;;;;;23.35;54.67;99326.81;5066805;28;8861;-77
2023/07/22 09:40:27;;;;;;;;;21.80;18.80;;;;;23.33;53.50;99324.25;5067354;28;8846;-74
2023/07/22 09:42:57;;;;;;;;;19.20;18.40;;;;;23.67;54.42;99323.47;5067312;28;8901;-74
2023/07/22 09:45:27;;;;;;;;;15.60;15.00;;;;;23.59;52.77;99324.06;5067682;28;8958;-74
2023/07/22 09:47:57;;;;;;;;;16.80;14.60;;;;;24.38;52.92;99325.81;5068931;28;8857;-76
2023/07/22 09:50:28;;;;;;;;;18.00;16.80;;;;;23.96;51.76;99326.47;5026903;28;8842;-77
2023/07/22 09:52:59;;;;;;;;;16.60;16.60;;;;;24.31;52.04;99315.59;5032509;28;8870;-73
2023/07/22 09:55:30;;;;;;;;;17.40;17.40;;;;;23.95;53.16;99319.41;5068105;28;9692;-74
2023/07/22 09:58:00;;;;;;;;;20.80;19.80;;;;;24.06;52.57;99319.41;5067704;28;8961;-75
2023/07/22 10:00:30;;;;;;;;;17.80;16.00;;;;;24.61;52.65;99323.94;5043745;28;8839;-71
2023/07/22 10:03:04;;;;;;;;;24.60;22.60;;;;;23.91;53.22;99326.88;5061456;28;10410;-77
2023/07/22 10:05:36;;;;;;;;;21.80;21.00;;;;;23.51;55.04;99327.31;5057639;28;8985;-70
2023/07/22 10:08:07;;;;;;;;;19.00;19.00;;;;;23.92;55.70;99323.22;5066461;28;8874;-72
2023/07/22 10:10:38;;;;;;;;;21.60;20.80;;;;;24.02;53.74;99312.59;4987006;28;8846;-73
2023/07/22 10:13:07;;;;;;;;;16.20;15.60;;;;;24.43;52.65;99320.94;5067489;28;8936;-74
2023/07/22 10:15:36;;;;;;;;;21.00;19.60;;;;;25.05;52.39;99317.50;5067564;28;8850;-75
2023/07/22 10:18:06;;;;;;;;;20.60;19.60;;;;;23.96;52.31;99319.31;5067718;28;8870;-78
2023/07/22 10:20:36;;;;;;;;;19.80;19.00;;;;;24.03;52.24;99318.78;5071888;28;8840;-75
2023/07/22 10:23:07;;;;;;;;;18.20;17.40;;;;;24.77;51.59;99318.16;5067311;28;8972;-73
2023/07/22 10:25:38;;;;;;;;;18.00;18.00;;;;;24.50;50.49;99314.91;5067282;28;8838;-72
2023/07/22 10:28:07;;;;;;;;;17.80;16.00;;;;;25.17;48.91;99317.44;5034358;28;8883;-75
2023/07/22 10:30:36;;;;;;;;;17.80;17.20;;;;;24.60;49.47;99322.22;5066555;28;8880;-72
2023/07/22 10:33:06;;;;;;;;;16.60;16.60;;;;;24.34;50.29;99317.19;5066792;28;8862;-71
2023/07/22 10:35:42;;;;;;;;;18.20;18.00;;;;;24.63;49.90;99313.91;5058899;28;8850;-72
2023/07/22 10:38:12;;;;;;;;;16.80;16.20;;;;;24.64;48.41;99319.16;5079070;28;8840;-73
2023/07/22 10:40:50;;;;;;;;;20.40;20.40;;;;;23.87;50.81;99320.03;5070489;28;8854;-72
2023/07/22 10:43:24;;;;;;;;;22.80;21.00;;;;;24.00;51.29;99313.66;5030341;28;8957;-71
2023/07/22 10:45:55;;;;;;;;;19.20;18.60;;;;;24.48;49.73;99314.19;5015781;28;8828;-71
2023/07/22 10:48:28;;;;;;;;;18.20;17.80;;;;;25.06;47.83;99321.06;5042292;28;8950;-74
2023/07/22 10:51:05;;;;;;;;;18.80;17.60;;;;;25.22;48.45;99328.66;5029967;28;8860;-74
2023/07/22 10:53:38;;;;;;;;;17.60;17.00;;;;;24.86;48.92;99326.28;5028439;28;8870;-71
2023/07/22 10:56:13;;;;;;;;;19.20;17.80;;;;;25.44;48.42;99328.56;5030026;28;8970;-74
2023/07/22 10:59:00;;;;;;;;;17.20;17.20;;;;;25.97;46.67;99324.84;5028977;28;8972;-77
2023/07/22 11:01:34;;;;;;;;;20.20;19.00;;;;;26.76;45.52;99313.22;5029292;28;8852;-74
2023/07/22 11:04:15;;;;;;;;;19.20;17.40;;;;;27.37;43.74;99305.78;5030509;28;8974;-77
2023/07/22 11:06:55;;;;;;;;;14.80;14.80;;;;;27.90;43.13;99307.84;5019841;28;9033;-75
2023/07/22 11:09:38;;;;;;;;;16.40;16.40;;;;;28.31;41.26;99305.66;5044663;28;8840;-72
2023/07/22 11:12:10;;;;;;;;;17.20;16.60;;;;;28.38;41.98;99314.00;5028270;28;8844;-76
2023/07/22 11:14:41;;;;;;;;;19.20;19.00;;;;;28.47;40.83;99329.28;5029761;28;8991;-72
2023/07/22 11:17:11;;;;;;;;;18.80;18.80;;;;;28.34;40.64;99326.97;5029655;28;8898;-74
2023/07/22 11:19:41;;;;;;;;;17.80;17.80;;;;;28.68;40.92;99326.31;5031632;28;8853;-76
2023/07/22 11:22:10;;;;;;;;;20.00;18.60;;;;;28.87;39.81;99329.88;5037402;28;9656;-75
2023/07/22 11:24:39;;;;;;;;;21.40;19.80;;;;;27.51;41.63;99331.44;5011964;28;8874;-76
2023/07/22 11:27:09;;;;;;;;;20.00;20.00;;;;;26.69;43.54;99341.75;5028402;28;8851;-73
2023/07/22 11:29:38;;;;;;;;;18.60;17.60;;;;;26.83;42.95;99325.16;5030252;28;8890;-73
2023/07/22 11:32:08;;;;;;;;;15.00;14.60;;;;;26.23;43.91;99330.59;5029005;28;8855;-69
2023/07/22 11:34:44;;;;;;;;;17.40;17.00;;;;;26.43;43.83;99325.22;4995129;28;8895;-70
2023/07/22 11:37:14;;;;;;;;;20.20;20.20;;;;;27.03;42.51;99320.59;5028379;28;8856;-68
2023/07/22 11:39:44;;;;;;;;;16.00;15.80;;;;;27.15;42.49;99312.34;5026499;28;9711;-68
2023/07/22 11:42:13;;;;;;;;;18.00;17.40;;;;;27.15;41.91;99331.22;5027797;28;8911;-70
2023/07/22 11:44:42;;;;;;;;;21.00;19.60;;;;;26.73;43.22;99332.38;5058900;28;8985;-68